Terminal Aerodrome Forecast
Issued by NWS Bismarck, ND

Home | Current Version | Previous Version | Text Only | Print | Product List | Glossary Off
Versions: 1 2 3 4 5 6 7 8 9 10 11 12 13 14 15 16 17 18 19 20 21 22 23 24

664
FTUS43 KBIS 110522
TAFISN
TAF
KISN 110522Z 1106/1206 30022G31KT P6SM SKC WS020/32055KT
     FM110800 31026G36KT P6SM BKN025
     FM111100 32022G31KT P6SM OVC015
     FM111600 31014KT P6SM VCSH OVC015
     FM111800 31014G23KT P6SM BKN010
     FM120000 31011KT P6SM BKN040=

USA.gov is the U.S. government's official web portal to all federal, state and local government web resources and services.